sensor_id;sensor_type;location;lat;lon;timestamp;pressure;altitude;pressure_sealevel;temperature;humidity
72612;BME280;60655;52.182;4.474;2023-02-11T00:00:55;103455.34;;;8.25;84.69
72612;BME280;60655;52.182;4.474;2023-02-11T00:02:55;103463.44;;;8.23;85.57
72612;BME280;60655;52.182;4.474;2023-02-11T00:04:56;103465.13;;;8.24;85.29
72612;BME280;60655;52.182;4.474;2023-02-11T00:06:57;103458.50;;;8.09;85.35
72612;BME280;60655;52.182;4.474;2023-02-11T00:08:58;103464.81;;;8.08;86.15
72612;BME280;60655;52.182;4.474;2023-02-11T00:10:59;103461.16;;;8.09;85.82
72612;BME280;60655;52.182;4.474;2023-02-11T00:12:59;103460.09;;;8.21;85.59
72612;BME280;60655;52.182;4.474;2023-02-11T00:15:00;103455.63;;;8.22;85.64
72612;BME280;60655;52.182;4.474;2023-02-11T00:17:01;103450.34;;;8.31;84.54
72612;BME280;60655;52.182;4.474;2023-02-11T00:19:02;103455.75;;;8.20;85.80
72612;BME280;60655;52.182;4.474;2023-02-11T00:21:07;103450.88;;;8.16;85.72
72612;BME280;60655;52.182;4.474;2023-02-11T00:23:08;103452.56;;;8.26;85.09
72612;BME280;60655;52.182;4.474;2023-02-11T00:25:11;103455.22;;;8.26;85.62
72612;BME280;60655;52.182;4.474;2023-02-11T00:27:12;103436.81;;;8.25;85.14
72612;BME280;60655;52.182;4.474;2023-02-11T00:29:14;103435.41;;;8.21;85.44
72612;BME280;60655;52.182;4.474;2023-02-11T00:31:17;103436.13;;;8.23;84.50
72612;BME280;60655;52.182;4.474;2023-02-11T00:33:18;103440.97;;;8.18;84.69
72612;BME280;60655;52.182;4.474;2023-02-11T00:35:19;103449.75;;;8.18;84.81
72612;BME280;60655;52.182;4.474;2023-02-11T00:37:20;103393.41;;;7.87;84.60
72612;BME280;60655;52.182;4.474;2023-02-11T00:39:21;103446.97;;;8.20;84.22
72612;BME280;60655;52.182;4.474;2023-02-11T00:41:22;103448.94;;;8.08;85.21
72612;BME280;60655;52.182;4.474;2023-02-11T00:43:23;103452.94;;;8.12;84.41
72612;BME280;60655;52.182;4.474;2023-02-11T00:45:24;103460.19;;;8.10;84.15
72612;BME280;60655;52.182;4.474;2023-02-11T00:47:25;103464.94;;;8.16;84.05
72612;BME280;60655;52.182;4.474;2023-02-11T00:49:26;103456.28;;;8.04;84.48
72612;BME280;60655;52.182;4.474;2023-02-11T00:51:27;103458.94;;;8.14;84.61
72612;BME280;60655;52.182;4.474;2023-02-11T00:53:28;103462.88;;;8.20;83.71
72612;BME280;60655;52.182;4.474;2023-02-11T00:55:29;103460.06;;;8.11;84.18
72612;BME280;60655;52.182;4.474;2023-02-11T00:57:30;103464.66;;;8.09;84.29
72612;BME280;60655;52.182;4.474;2023-02-11T00:59:31;103460.31;;;8.08;84.45
72612;BME280;60655;52.182;4.474;2023-02-11T01:01:32;103451.72;;;8.16;84.57
72612;BME280;60655;52.182;4.474;2023-02-11T01:03:35;103447.25;;;8.17;83.93
72612;BME280;60655;52.182;4.474;2023-02-11T01:05:36;103455.88;;;8.09;84.60
72612;BME280;60655;52.182;4.474;2023-02-11T01:07:36;103450.88;;;8.16;84.35
72612;BME280;60655;52.182;4.474;2023-02-11T01:09:37;103445.00;;;8.02;84.76
72612;BME280;60655;52.182;4.474;2023-02-11T01:11:38;103445.13;;;8.10;84.70
72612;BME280;60655;52.182;4.474;2023-02-11T01:13:40;103445.56;;;8.16;84.45
72612;BME280;60655;52.182;4.474;2023-02-11T01:15:41;103434.69;;;7.99;85.48
72612;BME280;60655;52.182;4.474;2023-02-11T01:17:42;103440.69;;;8.11;85.86
72612;BME280;60655;52.182;4.474;2023-02-11T01:19:42;103445.31;;;8.19;85.48
72612;BME280;60655;52.182;4.474;2023-02-11T01:21:43;103445.47;;;8.27;84.36
72612;BME280;60655;52.182;4.474;2023-02-11T01:23:44;103436.22;;;8.11;84.77
72612;BME280;60655;52.182;4.474;2023-02-11T01:25:45;103441.47;;;8.32;84.79
72612;BME280;60655;52.182;4.474;2023-02-11T01:27:46;103436.94;;;8.13;85.07
72612;BME280;60655;52.182;4.474;2023-02-11T01:29:47;103437.50;;;8.07;85.72
72612;BME280;60655;52.182;4.474;2023-02-11T01:31:48;103434.72;;;8.19;85.39
72612;BME280;60655;52.182;4.474;2023-02-11T01:33:48;103434.53;;;8.01;85.94
72612;BME280;60655;52.182;4.474;2023-02-11T01:35:51;103425.88;;;7.89;86.61
72612;BME280;60655;52.182;4.474;2023-02-11T01:37:52;103424.41;;;8.06;86.22
72612;BME280;60655;52.182;4.474;2023-02-11T01:39:53;103433.19;;;8.06;85.70
72612;BME280;60655;52.182;4.474;2023-02-11T01:41:53;103426.75;;;7.99;85.61
72612;BME280;60655;52.182;4.474;2023-02-11T01:43:54;103427.81;;;7.87;86.48
72612;BME280;60655;52.182;4.474;2023-02-11T01:46:02;103425.44;;;7.84;87.00
72612;BME280;60655;52.182;4.474;2023-02-11T01:48:04;103415.00;;;7.92;86.51
72612;BME280;60655;52.182;4.474;2023-02-11T01:50:05;103414.56;;;7.87;86.77
72612;BME280;60655;52.182;4.474;2023-02-11T01:52:09;103422.06;;;7.72;87.93
72612;BME280;60655;52.182;4.474;2023-02-11T01:54:17;103406.78;;;7.86;87.08
72612;BME280;60655;52.182;4.474;2023-02-11T01:56:41;103395.59;;;7.72;87.25
72612;BME280;60655;52.182;4.474;2023-02-11T01:59:07;103400.06;;;7.72;87.41
72612;BME280;60655;52.182;4.474;2023-02-11T02:01:12;103416.31;;;8.07;86.84
72612;BME280;60655;52.182;4.474;2023-02-11T02:03:18;103421.75;;;8.06;86.50
72612;BME280;60655;52.182;4.474;2023-02-11T02:05:31;103429.47;;;7.88;86.58
72612;BME280;60655;52.182;4.474;2023-02-11T02:10:10;103422.63;;;7.76;87.45
72612;BME280;60655;52.182;4.474;2023-02-11T02:12:13;103415.75;;;7.64;88.07
72612;BME280;60655;52.182;4.474;2023-02-11T02:14:14;103420.41;;;7.81;88.04
72612;BME280;60655;52.182;4.474;2023-02-11T02:16:17;103410.84;;;7.50;88.53
72612;BME280;60655;52.182;4.474;2023-02-11T02:18:51;103415.09;;;7.71;88.37
72612;BME280;60655;52.182;4.474;2023-02-11T02:23:34;103420.97;;;7.75;88.49
72612;BME280;60655;52.182;4.474;2023-02-11T02:27:52;103420.41;;;7.81;87.97
72612;BME280;60655;52.182;4.474;2023-02-11T02:32:33;103434.91;;;7.77;88.37
72612;BME280;60655;52.182;4.474;2023-02-11T02:34:48;103430.97;;;7.81;88.56
72612;BME280;60655;52.182;4.474;2023-02-11T02:39:01;103432.25;;;7.87;88.05
72612;BME280;60655;52.182;4.474;2023-02-11T02:41:10;103429.31;;;7.80;88.23
72612;BME280;60655;52.182;4.474;2023-02-11T02:43:12;103423.59;;;7.75;89.03
72612;BME280;60655;52.182;4.474;2023-02-11T02:45:14;103411.09;;;7.77;89.16
72612;BME280;60655;52.182;4.474;2023-02-11T02:47:15;103416.38;;;7.77;88.67
72612;BME280;60655;52.182;4.474;2023-02-11T02:49:16;103419.28;;;7.74;89.39
72612;BME280;60655;52.182;4.474;2023-02-11T03:07:11;103425.53;;;7.73;89.80
72612;BME280;60655;52.182;4.474;2023-02-11T03:09:27;103422.09;;;7.52;90.92
72612;BME280;60655;52.182;4.474;2023-02-11T03:11:31;103424.53;;;7.64;91.06
72612;BME280;60655;52.182;4.474;2023-02-11T03:13:34;103413.06;;;7.54;91.34
72612;BME280;60655;52.182;4.474;2023-02-11T03:15:42;103414.88;;;7.54;91.44
72612;BME280;60655;52.182;4.474;2023-02-11T03:17:46;103418.09;;;7.57;91.44
72612;BME280;60655;52.182;4.474;2023-02-11T03:19:49;103418.25;;;7.65;91.04
72612;BME280;60655;52.182;4.474;2023-02-11T03:21:52;103416.59;;;7.64;90.66
72612;BME280;60655;52.182;4.474;2023-02-11T03:23:54;103425.94;;;7.68;90.37
72612;BME280;60655;52.182;4.474;2023-02-11T03:26:06;103419.63;;;7.60;90.99
72612;BME280;60655;52.182;4.474;2023-02-11T03:28:17;103415.84;;;7.53;91.32
72612;BME280;60655;52.182;4.474;2023-02-11T03:30:40;103418.22;;;7.56;91.75
72612;BME280;60655;52.182;4.474;2023-02-11T03:32:52;103405.44;;;7.61;91.57
72612;BME280;60655;52.182;4.474;2023-02-11T03:34:59;103403.81;;;7.69;91.36
72612;BME280;60655;52.182;4.474;2023-02-11T03:37:19;103410.34;;;7.65;90.87
72612;BME280;60655;52.182;4.474;2023-02-11T03:39:26;103399.22;;;7.71;91.49
72612;BME280;60655;52.182;4.474;2023-02-11T03:41:30;103392.66;;;7.66;91.23
72612;BME280;60655;52.182;4.474;2023-02-11T03:43:37;103388.00;;;7.49;92.18
72612;BME280;60655;52.182;4.474;2023-02-11T03:45:42;103397.88;;;7.47;92.29
72612;BME280;60655;52.182;4.474;2023-02-11T03:47:54;103399.56;;;7.57;92.25
72612;BME280;60655;52.182;4.474;2023-02-11T03:49:56;103400.66;;;7.55;92.19
72612;BME280;60655;52.182;4.474;2023-02-11T03:52:00;103407.50;;;7.57;92.27
72612;BME280;60655;52.182;4.474;2023-02-11T03:54:08;103402.34;;;7.56;92.58
72612;BME280;60655;52.182;4.474;2023-02-11T03:56:16;103399.28;;;7.51;91.97
72612;BME280;60655;52.182;4.474;2023-02-11T03:58:17;103409.56;;;7.54;92.30
72612;BME280;60655;52.182;4.474;2023-02-11T04:00:18;103404.19;;;7.65;91.47
72612;BME280;60655;52.182;4.474;2023-02-11T04:02:21;103408.97;;;7.71;91.15
72612;BME280;60655;52.182;4.474;2023-02-11T04:04:24;103407.88;;;7.73;90.97
72612;BME280;60655;52.182;4.474;2023-02-11T04:06:25;103401.88;;;7.71;91.20
72612;BME280;60655;52.182;4.474;2023-02-11T04:08:28;103398.13;;;7.74;91.13
72612;BME280;60655;52.182;4.474;2023-02-11T04:10:31;103390.78;;;7.57;91.51
72612;BME280;60655;52.182;4.474;2023-02-11T04:12:32;103391.94;;;7.64;91.88
72612;BME280;60655;52.182;4.474;2023-02-11T04:14:33;103392.47;;;7.58;92.05
72612;BME280;60655;52.182;4.474;2023-02-11T04:16:34;103389.88;;;7.67;92.26
72612;BME280;60655;52.182;4.474;2023-02-11T04:18:35;103395.44;;;7.64;91.67
72612;BME280;60655;52.182;4.474;2023-02-11T04:20:36;103400.31;;;7.69;92.18
72612;BME280;60655;52.182;4.474;2023-02-11T04:22:37;103405.47;;;7.70;91.67
72612;BME280;60655;52.182;4.474;2023-02-11T04:24:38;103393.53;;;7.76;91.56
72612;BME280;60655;52.182;4.474;2023-02-11T04:26:39;103388.50;;;7.73;91.46
72612;BME280;60655;52.182;4.474;2023-02-11T04:28:39;103398.47;;;7.60;92.25
72612;BME280;60655;52.182;4.474;2023-02-11T04:30:40;103391.50;;;7.59;92.47
72612;BME280;60655;52.182;4.474;2023-02-11T04:32:42;103394.19;;;7.68;92.28
72612;BME280;60655;52.182;4.474;2023-02-11T04:34:43;103390.66;;;7.58;93.14
72612;BME280;60655;52.182;4.474;2023-02-11T04:36:44;103394.19;;;7.68;92.53
72612;BME280;60655;52.182;4.474;2023-02-11T04:38:45;103402.97;;;7.69;92.12
72612;BME280;60655;52.182;4.474;2023-02-11T04:40:46;103405.50;;;7.80;92.45
72612;BME280;60655;52.182;4.474;2023-02-11T04:42:47;103401.88;;;7.81;92.73
72612;BME280;60655;52.182;4.474;2023-02-11T04:44:48;103404.13;;;7.86;92.29
72612;BME280;60655;52.182;4.474;2023-02-11T04:46:49;103395.34;;;7.85;91.93
72612;BME280;60655;52.182;4.474;2023-02-11T04:48:50;103395.78;;;7.90;91.70
72612;BME280;60655;52.182;4.474;2023-02-11T04:50:50;103397.00;;;7.76;92.03
72612;BME280;60655;52.182;4.474;2023-02-11T04:52:51;103396.59;;;7.81;92.28
72612;BME280;60655;52.182;4.474;2023-02-11T04:54:52;103383.34;;;7.71;92.72
72612;BME280;60655;52.182;4.474;2023-02-11T04:56:53;103382.63;;;7.69;93.25
72612;BME280;60655;52.182;4.474;2023-02-11T04:58:54;103378.00;;;7.62;92.82
72612;BME280;60655;52.182;4.474;2023-02-11T05:00:55;103388.66;;;7.81;93.02
72612;BME280;60655;52.182;4.474;2023-02-11T05:02:56;103378.06;;;7.81;92.66
72612;BME280;60655;52.182;4.474;2023-02-11T05:04:56;103383.91;;;7.75;93.14
72612;BME280;60655;52.182;4.474;2023-02-11T05:06:58;103387.41;;;7.85;93.73
72612;BME280;60655;52.182;4.474;2023-02-11T05:08:58;103385.03;;;7.82;91.79
72612;BME280;60655;52.182;4.474;2023-02-11T05:10:59;103390.06;;;7.85;92.78
72612;BME280;60655;52.182;4.474;2023-02-11T05:13:02;103373.78;;;7.90;91.80
72612;BME280;60655;52.182;4.474;2023-02-11T05:15:03;103388.81;;;7.79;92.54
72612;BME280;60655;52.182;4.474;2023-02-11T05:17:04;103398.13;;;7.84;93.19
72612;BME280;60655;52.182;4.474;2023-02-11T05:19:05;103410.78;;;7.80;92.89
72612;BME280;60655;52.182;4.474;2023-02-11T05:21:07;103409.97;;;7.79;93.35
72612;BME280;60655;52.182;4.474;2023-02-11T05:23:10;103395.56;;;7.63;93.87
72612;BME280;60655;52.182;4.474;2023-02-11T05:25:11;103413.59;;;7.88;93.51
72612;BME280;60655;52.182;4.474;2023-02-11T05:27:12;103419.88;;;7.87;93.18
72612;BME280;60655;52.182;4.474;2023-02-11T05:29:13;103417.47;;;7.84;93.68
72612;BME280;60655;52.182;4.474;2023-02-11T05:31:14;103427.50;;;7.71;94.24
72612;BME280;60655;52.182;4.474;2023-02-11T05:33:16;103428.75;;;7.76;94.09
72612;BME280;60655;52.182;4.474;2023-02-11T05:35:17;103427.41;;;7.92;93.37
72612;BME280;60655;52.182;4.474;2023-02-11T05:37:18;103430.34;;;7.98;92.77
72612;BME280;60655;52.182;4.474;2023-02-11T05:39:20;103428.75;;;7.76;93.94
72612;BME280;60655;52.182;4.474;2023-02-11T05:41:21;103438.13;;;7.90;93.04
72612;BME280;60655;52.182;4.474;2023-02-11T05:43:21;103441.75;;;7.89;93.22
72612;BME280;60655;52.182;4.474;2023-02-11T05:45:22;103426.00;;;7.88;93.88
72612;BME280;60655;52.182;4.474;2023-02-11T05:47:23;103431.31;;;7.97;93.26
72612;BME280;60655;52.182;4.474;2023-02-11T05:49:24;103419.59;;;7.90;93.56
72612;BME280;60655;52.182;4.474;2023-02-11T05:51:25;103431.41;;;7.86;93.30
72612;BME280;60655;52.182;4.474;2023-02-11T05:53:29;103424.31;;;7.87;93.85
72612;BME280;60655;52.182;4.474;2023-02-11T05:55:30;103429.25;;;8.01;93.30
72612;BME280;60655;52.182;4.474;2023-02-11T05:57:31;103426.03;;;7.97;92.92
72612;BME280;60655;52.182;4.474;2023-02-11T05:59:32;103426.13;;;7.86;94.02
72612;BME280;60655;52.182;4.474;2023-02-11T06:01:33;103429.66;;;7.96;93.65
72612;BME280;60655;52.182;4.474;2023-02-11T06:03:34;103431.69;;;7.83;93.78
72612;BME280;60655;52.182;4.474;2023-02-11T06:05:34;103422.59;;;8.06;93.86
72612;BME280;60655;52.182;4.474;2023-02-11T06:07:35;103426.91;;;8.07;93.06
72612;BME280;60655;52.182;4.474;2023-02-11T06:09:36;103436.78;;;8.05;93.40
72612;BME280;60655;52.182;4.474;2023-02-11T06:11:37;103434.28;;;8.04;93.27
72612;BME280;60655;52.182;4.474;2023-02-11T06:13:38;103430.06;;;7.92;93.68
72612;BME280;60655;52.182;4.474;2023-02-11T06:15:39;103431.06;;;8.00;93.29
72612;BME280;60655;52.182;4.474;2023-02-11T06:17:40;103430.31;;;7.89;93.47
72612;BME280;60655;52.182;4.474;2023-02-11T06:19:41;103430.09;;;8.01;93.31
72612;BME280;60655;52.182;4.474;2023-02-11T06:21:41;103431.78;;;8.02;93.04
72612;BME280;60655;52.182;4.474;2023-02-11T06:23:42;103423.97;;;8.01;92.93
72612;BME280;60655;52.182;4.474;2023-02-11T06:25:43;103426.47;;;8.02;93.58
72612;BME280;60655;52.182;4.474;2023-02-11T06:27:44;103418.81;;;8.19;93.50
72612;BME280;60655;52.182;4.474;2023-02-11T06:29:45;103422.00;;;8.03;92.88
72612;BME280;60655;52.182;4.474;2023-02-11T06:31:46;103417.00;;;8.00;93.62
72612;BME280;60655;52.182;4.474;2023-02-11T06:33:47;103426.91;;;8.07;92.71
72612;BME280;60655;52.182;4.474;2023-02-11T06:35:49;103420.22;;;8.13;93.12
72612;BME280;60655;52.182;4.474;2023-02-11T06:37:50;103424.78;;;8.01;92.97
72612;BME280;60655;52.182;4.474;2023-02-11T06:39:53;103434.38;;;7.93;93.55
72612;BME280;60655;52.182;4.474;2023-02-11T06:41:54;103430.34;;;7.98;93.56
72612;BME280;60655;52.182;4.474;2023-02-11T06:43:55;103426.19;;;8.05;93.86
72612;BME280;60655;52.182;4.474;2023-02-11T06:45:56;103428.53;;;7.99;93.91
72612;BME280;60655;52.182;4.474;2023-02-11T06:47:57;103425.31;;;7.95;93.83
72612;BME280;60655;52.182;4.474;2023-02-11T06:49:57;103419.34;;;7.93;94.14
72612;BME280;60655;52.182;4.474;2023-02-11T06:51:58;103412.31;;;7.73;95.01
72612;BME280;60655;52.182;4.474;2023-02-11T06:53:59;103419.16;;;7.85;94.88
72612;BME280;60655;52.182;4.474;2023-02-11T06:56:08;103422.13;;;7.92;94.67
72612;BME280;60655;52.182;4.474;2023-02-11T06:58:09;103425.31;;;7.95;94.69
72612;BME280;60655;52.182;4.474;2023-02-11T07:00:10;103432.44;;;7.95;94.29
72612;BME280;60655;52.182;4.474;2023-02-11T07:02:11;103433.44;;;8.03;93.91
72612;BME280;60655;52.182;4.474;2023-02-11T07:04:12;103429.81;;;8.04;93.77
72612;BME280;60655;52.182;4.474;2023-02-11T07:06:20;103433.66;;;7.91;94.03
72612;BME280;60655;52.182;4.474;2023-02-11T07:08:22;103432.41;;;7.85;94.93
72612;BME280;60655;52.182;4.474;2023-02-11T07:10:23;103440.09;;;7.98;95.05
72612;BME280;60655;52.182;4.474;2023-02-11T07:12:24;103442.75;;;7.98;94.40
72612;BME280;60655;52.182;4.474;2023-02-11T07:14:25;103434.81;;;7.98;94.27
72612;BME280;60655;52.182;4.474;2023-02-11T07:16:25;103450.13;;;7.94;94.36
72612;BME280;60655;52.182;4.474;2023-02-11T07:18:26;103447.38;;;8.05;94.07
72612;BME280;60655;52.182;4.474;2023-02-11T07:20:27;103452.38;;;8.08;93.58
72612;BME280;60655;52.182;4.474;2023-02-11T07:22:28;103452.50;;;7.97;94.07
72612;BME280;60655;52.182;4.474;2023-02-11T07:24:29;103463.94;;;7.98;94.54
72612;BME280;60655;52.182;4.474;2023-02-11T07:26:30;103466.75;;;8.06;94.00
72612;BME280;60655;52.182;4.474;2023-02-11T07:28:31;103457.66;;;8.08;93.88
72612;BME280;60655;52.182;4.474;2023-02-11T07:30:32;103450.72;;;8.07;94.24
72612;BME280;60655;52.182;4.474;2023-02-11T07:32:32;103470.09;;;8.18;93.96
72612;BME280;60655;52.182;4.474;2023-02-11T07:34:34;103457.25;;;8.03;93.91
72612;BME280;60655;52.182;4.474;2023-02-11T07:36:35;103458.25;;;8.12;94.15
72612;BME280;60655;52.182;4.474;2023-02-11T07:38:37;103462.19;;;8.27;93.32
72612;BME280;60655;52.182;4.474;2023-02-11T07:40:38;103466.22;;;8.22;93.31
72612;BME280;60655;52.182;4.474;2023-02-11T07:42:39;103470.97;;;8.28;93.69
72612;BME280;60655;52.182;4.474;2023-02-11T07:44:41;103458.72;;;8.27;93.18
72612;BME280;60655;52.182;4.474;2023-02-11T07:46:42;103472.22;;;8.24;93.53
72612;BME280;60655;52.182;4.474;2023-02-11T07:48:45;103464.97;;;8.26;93.24
72612;BME280;60655;52.182;4.474;2023-02-11T07:50:46;103470.72;;;8.31;92.98
72612;BME280;60655;52.182;4.474;2023-02-11T07:52:47;103466.72;;;8.36;92.86
72612;BME280;60655;52.182;4.474;2023-02-11T07:54:47;103466.75;;;8.16;93.41
72612;BME280;60655;52.182;4.474;2023-02-11T07:56:48;103471.00;;;8.37;93.52
72612;BME280;60655;52.182;4.474;2023-02-11T07:58:49;103467.69;;;8.35;93.10
72612;BME280;60655;52.182;4.474;2023-02-11T08:00:51;103465.19;;;8.53;92.12
72612;BME280;60655;52.182;4.474;2023-02-11T08:02:52;103478.28;;;8.45;91.91
72612;BME280;60655;52.182;4.474;2023-02-11T08:04:53;103468.38;;;8.47;92.15
72612;BME280;60655;52.182;4.474;2023-02-11T08:06:53;103477.72;;;8.41;92.58
72612;BME280;60655;52.182;4.474;2023-02-11T08:08:57;103477.59;;;8.53;92.82
72612;BME280;60655;52.182;4.474;2023-02-11T08:11:02;103476.34;;;8.47;92.05
72612;BME280;60655;52.182;4.474;2023-02-11T08:13:04;103480.22;;;8.43;92.58
72612;BME280;60655;52.182;4.474;2023-02-11T08:15:05;103481.75;;;8.45;92.42
72612;BME280;60655;52.182;4.474;2023-02-11T08:17:06;103475.78;;;8.34;92.91
72612;BME280;60655;52.182;4.474;2023-02-11T08:19:09;103477.00;;;8.39;92.51
72612;BME280;60655;52.182;4.474;2023-02-11T08:21:11;103482.47;;;8.48;92.17
72612;BME280;60655;52.182;4.474;2023-02-11T08:23:12;103477.16;;;8.48;92.22
72612;BME280;60655;52.182;4.474;2023-02-11T08:25:13;103484.53;;;8.44;92.42
72612;BME280;60655;52.182;4.474;2023-02-11T08:27:14;103488.34;;;8.51;91.76
72612;BME280;60655;52.182;4.474;2023-02-11T08:29:15;103487.78;;;8.67;92.31
72612;BME280;60655;52.182;4.474;2023-02-11T08:31:19;103495.47;;;8.60;91.02
72612;BME280;60655;52.182;4.474;2023-02-11T08:33:21;103467.69;;;8.45;91.58
72612;BME280;60655;52.182;4.474;2023-02-11T08:35:22;103499.06;;;8.69;91.25
72612;BME280;60655;52.182;4.474;2023-02-11T08:37:22;103505.91;;;8.71;91.09
72612;BME280;60655;52.182;4.474;2023-02-11T08:39:23;103499.91;;;8.69;91.05
72612;BME280;60655;52.182;4.474;2023-02-11T08:41:25;103512.31;;;8.50;91.71
72612;BME280;60655;52.182;4.474;2023-02-11T08:43:26;103519.31;;;8.60;91.48
72612;BME280;60655;52.182;4.474;2023-02-11T08:45:27;103514.72;;;8.62;91.94
72612;BME280;60655;52.182;4.474;2023-02-11T08:47:28;103516.66;;;8.60;92.14
72612;BME280;60655;52.182;4.474;2023-02-11T08:49:28;103515.69;;;8.71;91.24
72612;BME280;60655;52.182;4.474;2023-02-11T08:51:31;103521.97;;;8.79;90.80
72612;BME280;60655;52.182;4.474;2023-02-11T08:53:33;103521.69;;;8.73;91.00
72612;BME280;60655;52.182;4.474;2023-02-11T08:55:34;103525.47;;;8.80;90.64
72612;BME280;60655;52.182;4.474;2023-02-11T08:57:35;103529.09;;;8.98;90.39
72612;BME280;60655;52.182;4.474;2023-02-11T08:59:36;103527.72;;;8.94;89.86
72612;BME280;60655;52.182;4.474;2023-02-11T09:01:39;103522.56;;;8.93;89.95
72612;BME280;60655;52.182;4.474;2023-02-11T09:03:40;103527.97;;;9.01;89.67
72612;BME280;60655;52.182;4.474;2023-02-11T09:05:45;103533.69;;;8.96;89.62
72612;BME280;60655;52.182;4.474;2023-02-11T09:07:46;103524.06;;;8.95;90.14
72612;BME280;60655;52.182;4.474;2023-02-11T09:09:47;103528.81;;;9.01;89.32
72612;BME280;60655;52.182;4.474;2023-02-11T09:11:48;103525.75;;;8.77;90.27
72612;BME280;60655;52.182;4.474;2023-02-11T09:13:49;103535.38;;;8.88;90.55
72612;BME280;60655;52.182;4.474;2023-02-11T09:15:50;103529.94;;;8.99;90.22
72612;BME280;60655;52.182;4.474;2023-02-11T09:17:51;103523.22;;;9.04;89.81
72612;BME280;60655;52.182;4.474;2023-02-11T09:19:52;103520.03;;;9.01;89.55
72612;BME280;60655;52.182;4.474;2023-02-11T09:21:53;103530.78;;;8.90;89.63
72612;BME280;60655;52.182;4.474;2023-02-11T09:23:54;103524.47;;;8.71;90.33
72612;BME280;60655;52.182;4.474;2023-02-11T09:25:55;103527.53;;;8.67;90.82
72612;BME280;60655;52.182;4.474;2023-02-11T09:27:56;103536.34;;;8.87;90.38
72612;BME280;60655;52.182;4.474;2023-02-11T09:29:56;103534.41;;;8.89;90.12
72612;BME280;60655;52.182;4.474;2023-02-11T09:31:57;103547.38;;;8.82;90.44
72612;BME280;60655;52.182;4.474;2023-02-11T09:34:02;103537.47;;;8.94;90.14
72612;BME280;60655;52.182;4.474;2023-02-11T09:36:04;103552.25;;;9.06;90.06
72612;BME280;60655;52.182;4.474;2023-02-11T09:38:06;103544.28;;;8.96;89.71
72612;BME280;60655;52.182;4.474;2023-02-11T09:40:07;103536.09;;;8.90;89.80
72612;BME280;60655;52.182;4.474;2023-02-11T09:44:34;103540.53;;;8.89;89.56
72612;BME280;60655;52.182;4.474;2023-02-11T09:46:40;103551.84;;;8.91;89.74
72612;BME280;60655;52.182;4.474;2023-02-11T09:48:43;103550.03;;;8.92;89.94
72612;BME280;60655;52.182;4.474;2023-02-11T09:52:59;103564.13;;;9.02;89.40
72612;BME280;60655;52.182;4.474;2023-02-11T09:55:08;103562.47;;;9.10;89.42
72612;BME280;60655;52.182;4.474;2023-02-11T09:57:11;103554.22;;;9.04;88.70
72612;BME280;60655;52.182;4.474;2023-02-11T09:59:14;103572.78;;;9.13;89.10
72612;BME280;60655;52.182;4.474;2023-02-11T10:01:59;103572.50;;;9.17;88.54
72612;BME280;60655;52.182;4.474;2023-02-11T10:03:59;103571.69;;;9.16;88.30
72612;BME280;60655;52.182;4.474;2023-02-11T10:08:55;103574.31;;;9.26;88.45
72612;BME280;60655;52.182;4.474;2023-02-11T10:11:03;103574.75;;;9.21;88.08
72612;BME280;60655;52.182;4.474;2023-02-11T10:13:19;103582.13;;;9.27;88.43
72612;BME280;60655;52.182;4.474;2023-02-11T10:20:22;103589.34;;;9.54;87.03
72612;BME280;60655;52.182;4.474;2023-02-11T10:22:33;103593.59;;;9.47;86.56
72612;BME280;60655;52.182;4.474;2023-02-11T10:24:36;103587.72;;;9.34;87.34
72612;BME280;60655;52.182;4.474;2023-02-11T10:26:39;103590.22;;;9.26;88.02
72612;BME280;60655;52.182;4.474;2023-02-11T10:28:43;103594.13;;;9.12;88.16
72612;BME280;60655;52.182;4.474;2023-02-11T10:31:05;103594.69;;;9.25;87.72
72612;BME280;60655;52.182;4.474;2023-02-11T10:33:28;103613.41;;;9.33;86.83
72612;BME280;60655;52.182;4.474;2023-02-11T10:35:31;103607.81;;;9.46;86.78
72612;BME280;60655;52.182;4.474;2023-02-11T10:37:32;103615.06;;;9.34;87.22
72612;BME280;60655;52.182;4.474;2023-02-11T10:39:33;103609.59;;;9.55;87.00
72612;BME280;60655;52.182;4.474;2023-02-11T10:41:38;103609.75;;;9.54;86.13
72612;BME280;60655;52.182;4.474;2023-02-11T10:43:42;103612.56;;;9.52;86.72
72612;BME280;60655;52.182;4.474;2023-02-11T10:45:48;103616.03;;;9.72;86.22
72612;BME280;60655;52.182;4.474;2023-02-11T10:47:49;103618.28;;;9.57;86.01
72612;BME280;60655;52.182;4.474;2023-02-11T10:49:50;103613.56;;;9.51;86.58
72612;BME280;60655;52.182;4.474;2023-02-11T10:52:16;103615.66;;;9.47;85.97
72612;BME280;60655;52.182;4.474;2023-02-11T10:54:18;103624.28;;;9.59;85.32
72612;BME280;60655;52.182;4.474;2023-02-11T10:56:25;103617.47;;;9.37;86.24
72612;BME280;60655;52.182;4.474;2023-02-11T10:58:30;103639.63;;;9.56;85.94
72612;BME280;60655;52.182;4.474;2023-02-11T11:00:40;103634.78;;;9.51;85.34
72612;BME280;60655;52.182;4.474;2023-02-11T11:02:42;103639.66;;;9.46;85.61
72612;BME280;60655;52.182;4.474;2023-02-11T11:04:44;103638.00;;;9.45;86.09
72612;BME280;60655;52.182;4.474;2023-02-11T11:06:47;103630.44;;;9.50;85.52
72612;BME280;60655;52.182;4.474;2023-02-11T11:08:50;103624.16;;;9.51;85.39
72612;BME280;60655;52.182;4.474;2023-02-11T11:11:03;103636.56;;;9.60;85.40
72612;BME280;60655;52.182;4.474;2023-02-11T11:13:07;103646.78;;;9.36;86.37
72612;BME280;60655;52.182;4.474;2023-02-11T11:15:28;103638.41;;;9.50;85.39
72612;BME280;60655;52.182;4.474;2023-02-11T11:17:29;103645.13;;;9.44;86.19
72612;BME280;60655;52.182;4.474;2023-02-11T11:19:30;103642.88;;;9.50;86.37
72612;BME280;60655;52.182;4.474;2023-02-11T11:21:51;103640.75;;;9.53;85.80
72612;BME280;60655;52.182;4.474;2023-02-11T11:23:58;103637.31;;;9.53;85.53
72612;BME280;60655;52.182;4.474;2023-02-11T11:28:03;103641.59;;;9.63;85.29
72612;BME280;60655;52.182;4.474;2023-02-11T11:30:04;103643.13;;;9.66;85.48
72612;BME280;60655;52.182;4.474;2023-02-11T11:32:28;103627.66;;;9.42;85.51
72612;BME280;60655;52.182;4.474;2023-02-11T11:34:41;103646.22;;;9.61;85.03